createdAt,value
2022-11-30T00:00:35.665Z,18.55
2022-11-30T00:03:15.787Z,19.48
2022-11-30T00:06:02.656Z,17.98
2022-11-30T00:08:42.706Z,20.88
2022-11-30T00:11:31.673Z,19.50
2022-11-30T00:14:11.759Z,18.42
2022-11-30T00:16:58.771Z,18.10
2022-11-30T00:19:38.693Z,19.60
2022-11-30T00:22:25.636Z,17.02
2022-11-30T00:25:12.673Z,19.33
2022-11-30T00:30:39.709Z,18.67
2022-11-30T00:33:20.214Z,19.08
2022-11-30T00:36:14.648Z,17.10
2022-11-30T00:38:56.107Z,17.17
2022-11-30T00:41:42.709Z,17.25
2022-11-30T00:44:29.711Z,17.60
2022-11-30T00:47:09.673Z,17.88
2022-11-30T00:49:56.665Z,19.60
2022-11-30T00:55:32.775Z,18.73
2022-11-30T00:58:13.698Z,20.55
2022-11-30T01:01:00.689Z,21.15
2022-11-30T01:03:41.728Z,19.60
2022-11-30T01:06:28.666Z,20.20
2022-11-30T01:09:09.151Z,19.33
2022-11-30T01:11:55.654Z,18.52
2022-11-30T01:14:35.683Z,17.65
2022-11-30T01:17:22.702Z,17.52
2022-11-30T01:20:02.772Z,16.40
2022-11-30T01:22:49.670Z,18.48
2022-11-30T01:28:23.683Z,20.42
2022-11-30T01:31:11.832Z,16.08
2022-11-30T01:34:07.699Z,17.85
2022-11-30T01:36:54.710Z,19.08
2022-11-30T01:39:41.676Z,17.70
2022-11-30T01:42:28.744Z,17.00
2022-11-30T01:45:10.712Z,18.13
2022-11-30T01:48:05.502Z,18.67
2022-11-30T01:50:45.668Z,17.83
2022-11-30T01:53:26.195Z,18.58
2022-11-30T01:56:12.719Z,18.20
2022-11-30T01:58:53.515Z,16.67
2022-11-30T02:01:39.728Z,18.17
2022-11-30T02:04:32.726Z,19.48
2022-11-30T02:07:21.796Z,19.23
2022-11-30T02:10:02.134Z,16.92
2022-11-30T02:12:58.695Z,17.60
2022-11-30T02:15:59.293Z,17.85
2022-11-30T02:19:13.676Z,18.83
2022-11-30T02:22:11.701Z,18.80
2022-11-30T02:25:10.723Z,17.17
2022-11-30T02:28:33.654Z,19.00
2022-11-30T02:31:17.875Z,17.45
2022-11-30T02:34:06.675Z,18.10
2022-11-30T02:36:47.808Z,21.35
2022-11-30T02:42:26.667Z,18.55
2022-11-30T02:45:15.658Z,17.73
2022-11-30T02:48:09.726Z,18.52
2022-11-30T02:51:04.669Z,18.73
2022-11-30T02:53:44.727Z,17.33
2022-11-30T02:56:32.702Z,18.52
2022-11-30T02:59:12.735Z,18.55
2022-11-30T03:01:59.708Z,17.48
2022-11-30T03:04:39.805Z,17.42
2022-11-30T03:07:26.707Z,18.45
2022-11-30T03:10:07.792Z,20.10
2022-11-30T03:15:41.746Z,18.58
2022-11-30T03:18:22.140Z,20.98
2022-11-30T03:21:08.707Z,20.58
2022-11-30T03:23:55.689Z,20.48
2022-11-30T03:26:35.766Z,22.05
2022-11-30T03:29:22.679Z,18.67
2022-11-30T03:32:09.666Z,20.55
2022-11-30T03:34:56.834Z,17.08
2022-11-30T03:37:36.669Z,21.83
2022-11-30T03:40:17.283Z,17.83
2022-11-30T03:43:03.667Z,18.13
2022-11-30T03:45:51.732Z,18.80
2022-11-30T03:48:32.677Z,18.58
2022-11-30T03:53:59.665Z,18.50
2022-11-30T03:56:40.254Z,20.95
2022-11-30T03:59:26.667Z,17.95
2022-11-30T04:02:07.155Z,20.00
2022-11-30T04:04:53.720Z,20.65
2022-11-30T04:07:40.727Z,20.83
2022-11-30T04:10:20.712Z,18.67
2022-11-30T04:13:07.663Z,18.60
2022-11-30T04:15:47.749Z,21.50
2022-11-30T04:18:36.692Z,18.60
2022-11-30T04:21:18.966Z,19.33
2022-11-30T04:24:05.684Z,19.20
2022-11-30T04:26:46.142Z,20.50
2022-11-30T04:29:32.674Z,21.38
2022-11-30T04:32:19.700Z,20.05
2022-11-30T04:35:06.662Z,18.88
2022-11-30T04:37:53.683Z,19.50
2022-11-30T04:40:34.367Z,19.45
2022-11-30T04:43:20.689Z,20.23
2022-11-30T04:46:01.148Z,21.13
2022-11-30T04:48:48.669Z,21.17
2022-11-30T04:51:29.149Z,19.33
2022-11-30T04:54:15.693Z,19.88
2022-11-30T04:57:02.882Z,19.35
2022-11-30T04:59:42.680Z,18.98
2022-11-30T05:02:23.148Z,17.40
2022-11-30T05:05:09.706Z,17.85
2022-11-30T05:08:00.738Z,18.77
2022-11-30T05:10:52.735Z,17.75
2022-11-30T05:13:33.147Z,22.00
2022-11-30T05:16:19.740Z,19.65
2022-11-30T05:19:06.721Z,18.83
2022-11-30T05:21:47.698Z,18.60
2022-11-30T05:27:20.910Z,19.20
2022-11-30T05:30:09.678Z,19.33
2022-11-30T05:32:49.802Z,19.88
2022-11-30T05:35:36.695Z,17.80
2022-11-30T05:38:16.805Z,19.92
2022-11-30T05:41:07.671Z,19.00
2022-11-30T05:43:47.764Z,19.15
2022-11-30T05:46:39.579Z,19.48
2022-11-30T05:49:20.812Z,21.33
2022-11-30T05:52:07.685Z,20.63
2022-11-30T05:54:48.021Z,17.60
2022-11-30T05:57:34.674Z,20.05
2022-11-30T06:00:22.706Z,18.95
2022-11-30T06:03:09.962Z,16.23
2022-11-30T06:05:49.663Z,17.17
2022-11-30T06:08:36.731Z,17.10
2022-11-30T06:11:17.685Z,20.83
2022-11-30T06:16:45.746Z,17.73
2022-11-30T06:22:12.726Z,17.58
2022-11-30T06:24:59.717Z,27.20
2022-11-30T06:27:39.700Z,17.88
2022-11-30T06:30:20.535Z,16.45
2022-11-30T06:33:06.696Z,18.20
2022-11-30T06:35:53.685Z,17.77
2022-11-30T06:38:34.725Z,18.35
2022-11-30T06:44:01.718Z,19.33
2022-11-30T06:46:48.668Z,18.33
2022-11-30T06:49:28.755Z,16.65
2022-11-30T06:52:15.679Z,18.80
2022-11-30T06:54:55.753Z,20.02
2022-11-30T06:57:42.681Z,19.88
2022-11-30T07:00:23.770Z,17.98
2022-11-30T07:03:12.692Z,17.10
2022-11-30T07:05:54.112Z,14.98
2022-11-30T07:11:27.688Z,16.98
2022-11-30T07:14:14.693Z,12.80
2022-11-30T07:17:01.693Z,14.52
2022-11-30T07:19:42.189Z,15.73
2022-11-30T07:22:28.707Z,16.95
2022-11-30T07:25:28.438Z,14.85
2022-11-30T07:28:15.688Z,14.80
2022-11-30T07:31:02.684Z,13.68
2022-11-30T07:33:56.731Z,14.13
2022-11-30T07:36:43.691Z,13.75
2022-11-30T07:39:24.694Z,11.52
2022-11-30T07:42:11.688Z,13.43
2022-11-30T07:44:59.428Z,13.60
2022-11-30T07:47:46.684Z,10.57
2022-11-30T07:53:13.688Z,10.80
2022-11-30T07:55:56.943Z,11.32
2022-11-30T07:58:44.726Z,10.60
2022-11-30T08:01:27.931Z,11.20
2022-11-30T08:04:14.715Z,12.20
2022-11-30T08:06:55.291Z,12.13
2022-11-30T08:09:41.695Z,14.52
2022-11-30T08:15:19.722Z,13.32
2022-11-30T08:18:00.198Z,10.48
2022-11-30T08:20:50.034Z,13.15
2022-11-30T08:23:36.748Z,10.80
2022-11-30T08:29:23.681Z,10.52
2022-11-30T08:32:04.589Z,12.85
2022-11-30T08:34:51.733Z,14.48
2022-11-30T08:40:19.691Z,10.35
2022-11-30T08:43:00.173Z,10.63
2022-11-30T08:45:46.740Z,11.95
2022-11-30T08:51:17.707Z,10.85
2022-11-30T08:53:58.216Z,11.85
2022-11-30T08:56:44.688Z,11.77
2022-11-30T09:02:11.798Z,11.00
2022-11-30T09:07:39.826Z,12.77
2022-11-30T09:13:06.800Z,11.85
2022-11-30T09:16:01.866Z,12.07
2022-11-30T09:18:42.054Z,11.98
2022-11-30T09:21:30.698Z,12.52
2022-11-30T09:24:17.729Z,11.95
2022-11-30T09:29:44.812Z,12.60
2022-11-30T09:32:31.691Z,12.85
2022-11-30T09:37:59.700Z,12.70
2022-11-30T09:40:47.797Z,14.07
2022-11-30T09:43:39.697Z,11.35
2022-11-30T09:46:34.745Z,13.25
2022-11-30T09:49:40.729Z,11.52
2022-11-30T09:53:04.858Z,13.10
2022-11-30T09:55:48.723Z,12.48
2022-11-30T09:59:02.691Z,13.40
2022-11-30T10:01:56.397Z,14.40
2022-11-30T10:04:37.184Z,13.82
2022-11-30T10:07:49.760Z,12.77
2022-11-30T10:10:56.717Z,13.02
2022-11-30T10:13:55.702Z,13.23
2022-11-30T10:16:51.290Z,14.75
2022-11-30T10:20:04.696Z,13.82
2022-11-30T10:23:03.304Z,14.63
2022-11-30T10:26:06.703Z,14.50
2022-11-30T10:28:53.989Z,13.93
2022-11-30T10:34:40.747Z,15.93
2022-11-30T10:37:36.737Z,16.02
2022-11-30T10:40:36.740Z,16.20
2022-11-30T10:43:46.705Z,14.57
2022-11-30T10:46:43.742Z,14.63
2022-11-30T10:49:26.824Z,14.32
2022-11-30T10:52:15.695Z,14.35
2022-11-30T10:55:06.747Z,14.77
2022-11-30T10:57:55.700Z,14.35
2022-11-30T11:00:35.811Z,14.70
2022-11-30T11:03:31.697Z,14.30
2022-11-30T11:06:17.792Z,15.10
2022-11-30T11:09:04.707Z,16.05
2022-11-30T11:14:37.898Z,14.82
2022-11-30T11:17:39.689Z,14.32
2022-11-30T11:20:31.273Z,14.75
2022-11-30T11:23:18.696Z,14.13
2022-11-30T11:26:05.678Z,14.77
2022-11-30T11:28:51.884Z,13.35
2022-11-30T11:31:45.700Z,13.38
2022-11-30T11:34:51.079Z,13.73
2022-11-30T11:37:40.723Z,14.25
2022-11-30T11:40:31.748Z,14.55
2022-11-30T11:43:16.884Z,13.55
2022-11-30T11:46:09.743Z,14.48
2022-11-30T11:49:00.475Z,13.95
2022-11-30T11:51:53.678Z,14.25
2022-11-30T11:54:47.066Z,15.48
2022-11-30T11:57:45.720Z,13.50
2022-11-30T12:00:26.602Z,13.55
2022-11-30T12:03:18.710Z,13.30
2022-11-30T12:06:04.212Z,14.00
2022-11-30T12:09:10.725Z,14.80
2022-11-30T12:11:57.845Z,13.25
2022-11-30T12:17:19.158Z,13.85
2022-11-30T12:20:37.741Z,14.35
2022-11-30T12:23:42.828Z,14.73
2022-11-30T12:26:28.716Z,14.50
2022-11-30T12:29:28.719Z,14.23
2022-11-30T12:32:19.813Z,14.73
2022-11-30T12:35:20.707Z,12.52
2022-11-30T12:38:23.512Z,15.77
2022-11-30T12:41:36.740Z,15.20
2022-11-30T12:44:44.751Z,14.38
2022-11-30T12:47:50.738Z,14.80
2022-11-30T12:51:14.879Z,17.40
2022-11-30T12:54:15.752Z,16.25
2022-11-30T12:57:31.943Z,14.82
2022-11-30T13:00:34.757Z,14.80
2022-11-30T13:03:24.796Z,15.65
2022-11-30T13:06:07.713Z,15.48
2022-11-30T13:09:10.726Z,16.90
2022-11-30T13:12:16.588Z,14.93
2022-11-30T13:15:14.076Z,17.23
2022-11-30T13:17:55.854Z,15.38
2022-11-30T13:21:07.764Z,16.33
2022-11-30T13:24:19.774Z,17.40
2022-11-30T13:27:08.786Z,17.83
2022-11-30T13:30:00.752Z,15.82
2022-11-30T13:32:57.919Z,16.48
2022-11-30T13:35:52.703Z,15.63
2022-11-30T13:38:39.771Z,14.60
2022-11-30T13:41:27.711Z,16.45
2022-11-30T13:44:31.644Z,17.60
2022-11-30T13:47:42.801Z,16.05
2022-11-30T13:50:37.716Z,16.23
2022-11-30T13:53:40.734Z,16.55
2022-11-30T13:56:27.760Z,14.45
2022-11-30T13:59:41.278Z,15.57
2022-11-30T14:02:40.698Z,17.13
2022-11-30T14:05:30.742Z,15.15
2022-11-30T14:08:17.958Z,16.13
2022-11-30T14:11:06.736Z,15.00
2022-11-30T14:13:47.319Z,15.07
2022-11-30T14:16:37.744Z,14.73
2022-11-30T14:19:19.084Z,13.70
2022-11-30T14:22:05.739Z,15.50
2022-11-30T14:27:42.720Z,16.15
2022-11-30T14:30:30.852Z,16.55
2022-11-30T14:33:26.990Z,16.05
2022-11-30T14:36:29.757Z,15.02
2022-11-30T14:39:43.715Z,14.70
2022-11-30T14:42:37.906Z,15.07
2022-11-30T14:45:30.894Z,14.02
2022-11-30T14:48:26.711Z,14.98
2022-11-30T14:51:10.743Z,15.60
2022-11-30T14:54:07.755Z,14.63
2022-11-30T14:56:56.770Z,17.25
2022-11-30T15:00:03.714Z,14.90
2022-11-30T15:02:51.730Z,15.70
2022-11-30T15:05:32.780Z,14.20
2022-11-30T15:08:23.736Z,16.65
2022-11-30T15:11:09.920Z,15.38
2022-11-30T15:14:13.711Z,14.73
2022-11-30T15:17:01.827Z,16.92
2022-11-30T15:19:53.712Z,14.25
2022-11-30T15:22:47.731Z,15.43
2022-11-30T15:25:37.954Z,14.57
2022-11-30T15:28:30.709Z,16.52
2022-11-30T15:31:21.759Z,15.90
2022-11-30T15:34:08.702Z,15.30
2022-11-30T15:37:02.751Z,15.95
2022-11-30T15:39:55.543Z,14.48
2022-11-30T15:42:49.742Z,16.25
2022-11-30T15:45:41.199Z,14.90
2022-11-30T15:48:39.735Z,17.88
2022-11-30T15:51:30.710Z,16.27
2022-11-30T15:54:10.823Z,14.88
2022-11-30T15:57:08.864Z,13.90
2022-11-30T15:59:56.727Z,16.10
2022-11-30T16:02:38.413Z,17.20
2022-11-30T16:05:27.819Z,16.92
2022-11-30T16:08:16.635Z,16.13
2022-11-30T16:11:07.828Z,15.90
2022-11-30T16:13:54.729Z,17.83
2022-11-30T16:16:37.818Z,16.85
2022-11-30T16:19:24.711Z,15.55
2022-11-30T16:24:58.806Z,16.92
2022-11-30T16:30:29.781Z,16.83
2022-11-30T16:33:09.739Z,17.77
2022-11-30T16:36:14.726Z,14.98
2022-11-30T16:38:57.723Z,16.10
2022-11-30T16:41:44.733Z,16.10
2022-11-30T16:47:11.784Z,16.17
2022-11-30T16:52:38.736Z,16.52
2022-11-30T16:55:26.818Z,18.63
2022-11-30T16:58:13.719Z,17.10
2022-11-30T17:03:42.740Z,20.50
2022-11-30T17:06:28.894Z,16.98
2022-11-30T17:09:19.763Z,16.83
2022-11-30T17:12:06.734Z,16.55
2022-11-30T17:17:40.755Z,17.27
2022-11-30T17:23:07.759Z,16.85
2022-11-30T17:25:49.279Z,17.00
2022-11-30T17:28:35.730Z,17.17
2022-11-30T17:34:02.751Z,16.20
2022-11-30T17:39:37.771Z,17.55
2022-11-30T17:42:24.726Z,17.50
2022-11-30T17:47:58.723Z,20.77
2022-11-30T17:53:25.774Z,18.23
2022-11-30T17:59:07.831Z,18.67
2022-11-30T18:04:28.230Z,19.17
2022-11-30T18:07:14.764Z,18.23
2022-11-30T18:12:41.731Z,19.25
2022-11-30T18:18:08.748Z,21.60
2022-11-30T18:23:42.753Z,18.15
2022-11-30T18:29:10.863Z,20.80
2022-11-30T18:31:57.734Z,20.48
2022-11-30T18:37:42.772Z,21.65
2022-11-30T18:43:16.742Z,22.67
2022-11-30T18:49:08.715Z,19.70
2022-11-30T18:51:48.894Z,23.02
2022-11-30T18:54:37.732Z,19.10
2022-11-30T18:57:17.812Z,20.48
2022-11-30T19:00:04.731Z,20.65
2022-11-30T19:05:44.749Z,18.58
2022-11-30T19:08:24.787Z,19.67
2022-11-30T19:11:14.780Z,18.75
2022-11-30T19:13:54.861Z,19.63
2022-11-30T19:16:41.800Z,19.98
2022-11-30T19:22:15.752Z,20.67
2022-11-30T19:27:42.719Z,20.58
2022-11-30T19:33:09.723Z,19.70
2022-11-30T19:38:44.469Z,21.33
2022-11-30T19:41:31.734Z,23.25
2022-11-30T19:44:21.753Z,22.90
2022-11-30T19:47:01.820Z,21.52
2022-11-30T19:49:48.723Z,22.08
2022-11-30T19:55:15.791Z,19.58
2022-11-30T20:00:42.737Z,25.80
2022-11-30T20:06:10.231Z,21.27
2022-11-30T20:08:56.756Z,21.38
2022-11-30T20:14:23.864Z,23.55
2022-11-30T20:17:10.828Z,22.13
2022-11-30T20:22:39.785Z,23.25
2022-11-30T20:25:21.132Z,20.77
2022-11-30T20:28:12.428Z,23.48
2022-11-30T20:30:52.837Z,21.77
2022-11-30T20:33:39.759Z,23.20
2022-11-30T20:39:16.726Z,20.30
2022-11-30T20:41:56.871Z,23.90
2022-11-30T20:44:43.747Z,22.25
2022-11-30T20:50:12.741Z,22.70
2022-11-30T20:52:52.770Z,24.17
2022-11-30T20:55:39.740Z,25.10
2022-11-30T21:01:23.031Z,24.27
2022-11-30T21:04:02.824Z,21.13
2022-11-30T21:06:45.446Z,22.50
2022-11-30T21:09:32.742Z,23.70
2022-11-30T21:12:19.817Z,23.20
2022-11-30T21:14:59.742Z,26.33
2022-11-30T21:17:40.405Z,30.25
2022-11-30T21:20:26.983Z,27.23
2022-11-30T21:23:07.218Z,30.90
2022-11-30T21:25:54.111Z,30.27
2022-11-30T21:28:42.071Z,30.27
2022-11-30T21:31:22.933Z,27.17
2022-11-30T21:34:09.751Z,29.75
2022-11-30T21:36:58.742Z,28.85
2022-11-30T21:39:45.764Z,29.33
2022-11-30T21:45:12.766Z,29.40
2022-11-30T21:47:59.747Z,31.27
2022-11-30T21:50:46.744Z,28.92
2022-11-30T21:53:26.886Z,30.08
2022-11-30T21:56:18.748Z,29.63
2022-11-30T21:58:59.904Z,33.97
2022-11-30T22:01:48.744Z,31.60
2022-11-30T22:04:28.936Z,31.98
2022-11-30T22:07:18.866Z,33.08
2022-11-30T22:09:58.869Z,32.13
2022-11-30T22:12:45.768Z,30.50
2022-11-30T22:18:12.831Z,32.60
2022-11-30T22:23:42.755Z,31.70
2022-11-30T22:26:29.894Z,31.75
2022-11-30T22:29:23.743Z,31.75
2022-11-30T22:32:10.744Z,32.95
2022-11-30T22:34:57.764Z,31.58
2022-11-30T22:37:37.986Z,32.45
2022-11-30T22:40:24.751Z,29.60
2022-11-30T22:43:12.746Z,30.85
2022-11-30T22:45:59.848Z,31.02
2022-11-30T22:51:28.880Z,33.90
2022-11-30T22:54:09.777Z,31.35
2022-11-30T22:56:50.291Z,32.97
2022-11-30T22:59:36.762Z,31.95
2022-11-30T23:02:23.771Z,35.60
2022-11-30T23:07:50.796Z,34.65
2022-11-30T23:10:30.892Z,32.03
2022-11-30T23:13:17.752Z,34.42
2022-11-30T23:16:05.738Z,32.25
2022-11-30T23:18:55.360Z,35.50
2022-11-30T23:21:43.784Z,35.42
2022-11-30T23:24:24.267Z,32.15
2022-11-30T23:27:10.748Z,32.60
2022-11-30T23:29:57.803Z,31.05
2022-11-30T23:35:38.828Z,32.35
2022-11-30T23:38:25.755Z,34.78
2022-11-30T23:41:23.855Z,36.22
2022-11-30T23:44:11.843Z,34.67
2022-11-30T23:46:58.797Z,34.47
2022-11-30T23:49:45.890Z,34.42
2022-11-30T23:52:25.876Z,34.58
2022-11-30T23:55:13.747Z,34.55
2022-11-30T23:57:53.809Z,34.88
